TimeEDT,TemperatureF,Dew PointF,Humidity,Sea Level PressureIn,VisibilityMPH,Wind Direction,Wind SpeedMPH,Gust SpeedMPH,PrecipitationIn,Events,Conditions,WindDirDegrees,DateUTC
12:17 AM,40.6,33.8,77,30.18,10.0,South,4.6,-,N/A,,Clear,170,2013-03-31 04:17:00
12:37 AM,40.6,34.9,80,30.18,10.0,SSE,4.6,-,N/A,,Clear,160,2013-03-31 04:37:00
12:57 AM,40.6,35.6,82,30.18,10.0,SSE,4.6,-,N/A,,Clear,160,2013-03-31 04:57:00
1:17 AM,40.3,35.6,83,30.18,10.0,South,4.6,-,N/A,,Clear,170,2013-03-31 05:17:00
1:37 AM,40.6,36.1,84,30.17,10.0,South,5.8,-,N/A,,Clear,180,2013-03-31 05:37:00
1:58 AM,40.5,36.0,84,30.17,10.0,South,4.6,-,N/A,,Clear,170,2013-03-31 05:58:00
2:18 AM,40.3,36.0,85,30.16,10.0,South,4.6,-,N/A,,Clear,180,2013-03-31 06:18:00
2:38 AM,40.3,36.1,85,30.16,10.0,South,4.6,-,N/A,,Clear,180,2013-03-31 06:38:00
2:58 AM,40.8,36.5,85,30.16,10.0,South,5.8,-,N/A,,Clear,190,2013-03-31 06:58:00
3:18 AM,40.6,36.5,85,30.14,10.0,South,4.6,-,N/A,,Clear,170,2013-03-31 07:18:00
3:38 AM,41.0,36.5,84,30.14,10.0,South,4.6,-,N/A,,Clear,170,2013-03-31 07:38:00
3:58 AM,41.0,36.5,84,30.14,10.0,SSE,3.5,-,N/A,,Clear,160,2013-03-31 07:58:00
4:18 AM,40.8,36.5,85,30.13,10.0,SSE,4.6,-,N/A,,Clear,160,2013-03-31 08:18:00
4:38 AM,40.5,36.1,85,30.12,10.0,SSE,4.6,-,N/A,,Clear,150,2013-03-31 08:38:00
4:58 AM,40.6,35.6,82,30.12,10.0,SE,4.6,-,N/A,,Clear,140,2013-03-31 08:58:00
5:18 AM,40.3,35.1,82,30.11,10.0,SSE,4.6,-,N/A,,Clear,150,2013-03-31 09:18:00
5:38 AM,39.7,34.7,82,30.11,10.0,SSE,4.6,-,N/A,,Clear,150,2013-03-31 09:38:00
5:48 AM,39.2,35.6,87,30.10,10.0,SE,5.8,-,N/A,,Scattered Clouds,140,2013-03-31 09:48:00
5:58 AM,40.6,34.7,79,30.10,10.0,SSE,5.8,-,N/A,,Clear,160,2013-03-31 09:58:00
6:18 AM,40.5,34.7,80,30.10,10.0,SSE,5.8,-,N/A,,Clear,150,2013-03-31 10:18:00
6:38 AM,40.8,34.9,79,30.09,10.0,SSE,5.8,-,N/A,,Clear,150,2013-03-31 10:38:00
6:50 AM,41.0,35.6,81,30.08,10.0,SE,8.1,-,N/A,,Overcast,140,2013-03-31 10:50:00
6:58 AM,41.9,35.6,78,30.08,10.0,SSE,8.1,-,N/A,,Clear,160,2013-03-31 10:58:00
7:18 AM,42.6,36.5,79,30.09,10.0,SSE,6.9,-,N/A,,Clear,160,2013-03-31 11:18:00
7:38 AM,43.9,37.4,78,30.08,10.0,SSE,9.2,-,N/A,,Clear,160,2013-03-31 11:38:00
7:41 AM,44.1,37.6,78,30.08,10.0,SSE,9.2,-,N/A,,Clear,160,2013-03-31 11:41:00
7:50 AM,44.6,37.4,76,30.08,10.0,SSE,9.2,-,N/A,,Overcast,150,2013-03-31 11:50:00
8:50 AM,48.2,39.2,71,30.08,10.0,SSE,9.2,-,N/A,,Overcast,160,2013-03-31 12:50:00
9:48 AM,50.0,41.0,71,30.05,7.0,South,8.1,-,N/A,,Overcast,170,2013-03-31 13:48:00
10:50 AM,55.4,42.8,63,30.03,10.0,South,11.5,-,N/A,,Overcast,170,2013-03-31 14:50:00
11:51 AM,57.2,44.6,63,29.99,10.0,South,11.5,18.4,N/A,,Overcast,170,2013-03-31 15:51:00
12:46 PM,57.2,44.6,63,29.95,10.0,SSW,19.6,29.9,N/A,,Overcast,200,2013-03-31 16:46:00
1:52 PM,53.6,46.4,77,29.89,10.0,SSE,15.0,23.0,N/A,,Overcast,160,2013-03-31 17:52:00
2:49 PM,51.8,50.0,94,29.86,3.0,SSE,11.5,17.3,N/A,Rain,Rain,150,2013-03-31 18:49:00
3:33 PM,50.0,50.0,100,29.83,2.0,SSE,10.4,-,N/A,,Drizzle,150,2013-03-31 19:33:00
3:45 PM,50.0,50.0,100,29.82,1.0,SSE,9.2,-,N/A,,Heavy Drizzle,150,2013-03-31 19:45:00
4:51 PM,53.6,53.6,100,29.81,7.0,SW,8.1,18.4,N/A,,Overcast,230,2013-03-31 20:51:00
5:51 PM,51.8,51.8,100,29.80,5.0,SW,9.2,-,N/A,Rain,Light Rain,230,2013-03-31 21:51:00
6:52 PM,50.0,50.0,100,29.79,7.0,SW,6.9,-,N/A,,Overcast,230,2013-03-31 22:52:00
7:53 PM,50.0,50.0,100,29.79,7.0,WSW,9.2,-,N/A,,Overcast,250,2013-03-31 23:53:00
8:50 PM,50.0,50.0,100,29.80,7.0,WSW,3.5,-,N/A,,Mostly Cloudy,250,2013-04-01 00:50:00
11:00 PM,50.4,50.4,100,29.82,10.0,West,4.6,-,N/A,,Scattered Clouds,280,2013-04-01 03:00:00
11:20 PM,50.2,50.2,100,29.82,10.0,WNW,4.6,-,N/A,,Scattered Clouds,290,2013-04-01 03:20:00
11:40 PM,49.8,49.8,100,29.82,10.0,Calm,Calm,-,N/A,,Mostly Cloudy,0,2013-04-01 03:40:00